Aérodrome :
LOGIN :

S'inscrire | Disclaimer

   EN    FR    IT 

 










Légende :    VFR   VFR Marginal   IFR   IFR Intensif   IFR Très Intensif
Visi : 
Plafond : 
>= 8 km
>= 3000ft
5 à 8 km
1000 à 3000 ft
1500m à 5 km
500 à 1000 ft
800 à 1500m
200 à 500 ft
< 800m
< 200 ft
Symboles :   Orages  Brouillard  Fortes neiges  Fortes précipitations  Vent > 20 kt
SIGMETs :   Divers  Orages  Givrage  Turbulence  Onde Orograph.  Cendres Volcan.







- Altitude de l'aérodrome : 83 ft
- Code IATA : LHR
- Voir les cartes d'approche


EGLL - London Heathrow

DERNIER METAR :
  • 200520Z AUTO 21010KT 8000 -RA FEW021 SCT029 BKN042 17/15 Q1012 TEMPO BKN012

METARs EXPIRÉS :
  • 200450Z AUTO 22012KT 5000 -RA SCT017 BKN022 BKN028 17/15 Q1012 TEMPO BKN014
  • 200420Z AUTO 21013KT 9999 BKN020 BKN030 BKN043 18/15 Q1012 TEMPO BKN014
  • 200350Z AUTO 21014KT 9999 BKN019 BKN026 BKN031 18/15 Q1012 NOSIG
  • 200320Z AUTO 20012KT 9999 SCT020 BKN027 18/15 Q1012 NOSIG
  • 200250Z AUTO 20012KT 9999 OVC018 18/15 Q1013 TEMPO BKN012

TAF TAF EGLL
Valide du 20 à 06h jusqu'au 21 à 12h UTC


200456Z 2006/2112 21015KT 9999 SCT020
PROB40
TEMPO 2006/2008 4500 -RADZ BKN012
BECMG 2008/2011 21018G30KT
TEMPO 2022/2102 20026G42KT 6000 RA BKN010
PROB40
TEMPO 2023/2102 4000 +RA
BECMG 2101/2104 26020G30KT
Pas de NOTAMs connus pour ce terrain.
1 SIGMET publié pour la FIR London (EGTT) :
 
Onde orographique forte
EGTT SIGMET 03 VALID 200500/200900 EGRR
EGTT LONDON FIR SEV MTW FCST WI N5407 E00000 - N5409 W00252 - N5500 W00500 - N5500 W00100 - N5500 E00001 - N5407 E00000 FL030/250 MOV N 10KT WKN=



MET'MAP, la Météo Aéronautique d'un coup d'oeil ! - Copyright ORBIFLY Décembre 2007 - Disclaimer

ORBIFLY MET'MAP TEAM :

Programmation & Développement : Alexandra Zaïnal
Conception & Développement : Baudouin d'Aumeries
Co-Programmation & Développement : Marc-Olivier Méhu
Soutien technique & logistique : Manuel Goepfert

Contact : metmap@orbifly.com




SOURCES & CREDITS :

   NOAA